sensor_id;sensor_type;location;lat;lon;timestamp;temperature;humidity
3100;DHT22;1560;52.746;13.474;2022-11-15T00:02:06;4.50;99.90
3100;DHT22;1560;52.746;13.474;2022-11-15T00:04:35;4.50;99.90
3100;DHT22;1560;52.746;13.474;2022-11-15T00:07:04;4.40;99.90
3100;DHT22;1560;52.746;13.474;2022-11-15T00:09:33;4.40;99.90
3100;DHT22;1560;52.746;13.474;2022-11-15T00:12:01;4.40;99.90
3100;DHT22;1560;52.746;13.474;2022-11-15T00:17:06;4.30;99.90
3100;DHT22;1560;52.746;13.474;2022-11-15T00:19:35;4.30;99.90
3100;DHT22;1560;52.746;13.474;2022-11-15T00:22:04;4.30;99.90
3100;DHT22;1560;52.746;13.474;2022-11-15T00:24:33;4.30;99.90
3100;DHT22;1560;52.746;13.474;2022-11-15T00:27:02;4.30;99.90
3100;DHT22;1560;52.746;13.474;2022-11-15T00:32:07;4.40;99.90
3100;DHT22;1560;52.746;13.474;2022-11-15T00:34:36;4.40;99.90
3100;DHT22;1560;52.746;13.474;2022-11-15T00:37:04;4.40;99.90
3100;DHT22;1560;52.746;13.474;2022-11-15T00:39:34;4.50;99.90
3100;DHT22;1560;52.746;13.474;2022-11-15T00:44:39;4.40;99.90
3100;DHT22;1560;52.746;13.474;2022-11-15T00:49:45;4.40;99.90
3100;DHT22;1560;52.746;13.474;2022-11-15T00:52:14;4.50;99.90
3100;DHT22;1560;52.746;13.474;2022-11-15T00:54:43;4.40;99.90
3100;DHT22;1560;52.746;13.474;2022-11-15T00:57:12;4.30;99.90
3100;DHT22;1560;52.746;13.474;2022-11-15T00:59:40;4.20;99.90
3100;DHT22;1560;52.746;13.474;2022-11-15T01:04:45;4.40;99.90
3100;DHT22;1560;52.746;13.474;2022-11-15T01:07:14;4.20;99.90
3100;DHT22;1560;52.746;13.474;2022-11-15T01:09:46;4.30;99.90
3100;DHT22;1560;52.746;13.474;2022-11-15T01:12:15;4.30;99.90
3100;DHT22;1560;52.746;13.474;2022-11-15T01:14:43;4.30;99.90
3100;DHT22;1560;52.746;13.474;2022-11-15T01:17:12;4.40;99.90
3100;DHT22;1560;52.746;13.474;2022-11-15T01:19:41;4.40;99.90
3100;DHT22;1560;52.746;13.474;2022-11-15T01:24:46;4.50;99.90
3100;DHT22;1560;52.746;13.474;2022-11-15T01:27:15;4.50;99.90
3100;DHT22;1560;52.746;13.474;2022-11-15T01:29:44;4.50;99.90
3100;DHT22;1560;52.746;13.474;2022-11-15T01:34:50;4.50;99.90
3100;DHT22;1560;52.746;13.474;2022-11-15T01:37:19;4.60;99.90
3100;DHT22;1560;52.746;13.474;2022-11-15T01:39:47;4.60;99.90
3100;DHT22;1560;52.746;13.474;2022-11-15T01:42:17;4.60;99.90
3100;DHT22;1560;52.746;13.474;2022-11-15T01:44:48;4.60;99.90
3100;DHT22;1560;52.746;13.474;2022-11-15T01:49:59;4.60;99.90
3100;DHT22;1560;52.746;13.474;2022-11-15T01:55:08;4.70;99.90
3100;DHT22;1560;52.746;13.474;2022-11-15T02:00:16;4.70;99.90
3100;DHT22;1560;52.746;13.474;2022-11-15T02:02:45;4.80;99.90
3100;DHT22;1560;52.746;13.474;2022-11-15T02:07:50;4.80;99.90
3100;DHT22;1560;52.746;13.474;2022-11-15T02:10:24;4.70;99.90
3100;DHT22;1560;52.746;13.474;2022-11-15T02:12:53;4.80;99.90
3100;DHT22;1560;52.746;13.474;2022-11-15T02:18:07;4.80;99.90
3100;DHT22;1560;52.746;13.474;2022-11-15T02:23:55;4.80;99.90
3100;DHT22;1560;52.746;13.474;2022-11-15T02:29:10;4.80;99.90
3100;DHT22;1560;52.746;13.474;2022-11-15T02:31:45;4.80;99.90
3100;DHT22;1560;52.746;13.474;2022-11-15T02:34:17;4.70;99.90
3100;DHT22;1560;52.746;13.474;2022-11-15T02:36:53;4.70;99.90
3100;DHT22;1560;52.746;13.474;2022-11-15T02:42:00;4.70;99.90
3100;DHT22;1560;52.746;13.474;2022-11-15T02:44:30;4.70;99.90
3100;DHT22;1560;52.746;13.474;2022-11-15T02:49:38;4.60;99.90
3100;DHT22;1560;52.746;13.474;2022-11-15T02:52:08;4.70;99.90
3100;DHT22;1560;52.746;13.474;2022-11-15T02:57:16;4.70;99.90
3100;DHT22;1560;52.746;13.474;2022-11-15T03:05:15;4.70;99.90
3100;DHT22;1560;52.746;13.474;2022-11-15T03:10:29;4.70;99.90
3100;DHT22;1560;52.746;13.474;2022-11-15T03:13:00;4.80;99.90
3100;DHT22;1560;52.746;13.474;2022-11-15T03:15:31;4.70;99.90
3100;DHT22;1560;52.746;13.474;2022-11-15T03:18:04;4.70;99.90
3100;DHT22;1560;52.746;13.474;2022-11-15T03:20:33;4.70;99.90
3100;DHT22;1560;52.746;13.474;2022-11-15T03:25:48;4.80;99.90
3100;DHT22;1560;52.746;13.474;2022-11-15T03:28:15;4.70;99.90
3100;DHT22;1560;52.746;13.474;2022-11-15T03:30:45;4.80;99.90
3100;DHT22;1560;52.746;13.474;2022-11-15T03:33:14;4.70;99.90
3100;DHT22;1560;52.746;13.474;2022-11-15T03:35:45;4.70;99.90
3100;DHT22;1560;52.746;13.474;2022-11-15T03:38:19;4.70;99.90
3100;DHT22;1560;52.746;13.474;2022-11-15T03:40:51;4.70;99.90
3100;DHT22;1560;52.746;13.474;2022-11-15T03:46:02;4.80;99.90
3100;DHT22;1560;52.746;13.474;2022-11-15T03:48:34;4.80;99.90
3100;DHT22;1560;52.746;13.474;2022-11-15T03:51:05;4.80;99.90
3100;DHT22;1560;52.746;13.474;2022-11-15T03:53:34;4.80;99.90
3100;DHT22;1560;52.746;13.474;2022-11-15T03:56:03;4.70;99.90
3100;DHT22;1560;52.746;13.474;2022-11-15T04:01:09;4.80;99.90
3100;DHT22;1560;52.746;13.474;2022-11-15T04:03:38;4.80;99.90
3100;DHT22;1560;52.746;13.474;2022-11-15T04:06:07;4.80;99.90
3100;DHT22;1560;52.746;13.474;2022-11-15T04:11:12;4.80;99.90
3100;DHT22;1560;52.746;13.474;2022-11-15T04:13:41;4.90;99.90
3100;DHT22;1560;52.746;13.474;2022-11-15T04:16:10;4.80;99.90
3100;DHT22;1560;52.746;13.474;2022-11-15T04:21:15;4.90;99.90
3100;DHT22;1560;52.746;13.474;2022-11-15T04:26:39;4.90;99.90
3100;DHT22;1560;52.746;13.474;2022-11-15T04:29:07;4.80;99.90
3100;DHT22;1560;52.746;13.474;2022-11-15T04:31:54;4.90;99.90
3100;DHT22;1560;52.746;13.474;2022-11-15T04:34:23;4.80;99.90
3100;DHT22;1560;52.746;13.474;2022-11-15T04:36:52;4.80;99.90
3100;DHT22;1560;52.746;13.474;2022-11-15T04:39:39;4.80;99.90
3100;DHT22;1560;52.746;13.474;2022-11-15T04:44:45;4.80;99.90
3100;DHT22;1560;52.746;13.474;2022-11-15T04:47:14;4.70;99.90
3100;DHT22;1560;52.746;13.474;2022-11-15T04:49:43;4.70;99.90
3100;DHT22;1560;52.746;13.474;2022-11-15T04:52:12;4.60;99.90
3100;DHT22;1560;52.746;13.474;2022-11-15T04:54:41;4.50;99.90
3100;DHT22;1560;52.746;13.474;2022-11-15T04:57:10;4.50;99.90
3100;DHT22;1560;52.746;13.474;2022-11-15T05:02:15;4.20;99.90
3100;DHT22;1560;52.746;13.474;2022-11-15T05:04:44;4.20;99.90
3100;DHT22;1560;52.746;13.474;2022-11-15T05:07:13;4.40;99.90
3100;DHT22;1560;52.746;13.474;2022-11-15T05:09:42;4.30;99.90
3100;DHT22;1560;52.746;13.474;2022-11-15T05:14:47;4.30;99.90
3100;DHT22;1560;52.746;13.474;2022-11-15T05:19:53;4.30;99.90
3100;DHT22;1560;52.746;13.474;2022-11-15T05:25:00;4.20;99.90
3100;DHT22;1560;52.746;13.474;2022-11-15T05:27:29;4.20;99.90
3100;DHT22;1560;52.746;13.474;2022-11-15T05:29:58;4.30;99.90
3100;DHT22;1560;52.746;13.474;2022-11-15T05:32:27;4.20;99.90
3100;DHT22;1560;52.746;13.474;2022-11-15T05:34:56;4.20;99.90
3100;DHT22;1560;52.746;13.474;2022-11-15T05:37:25;4.20;99.90
3100;DHT22;1560;52.746;13.474;2022-11-15T05:39:54;4.10;99.90
3100;DHT22;1560;52.746;13.474;2022-11-15T05:42:23;4.10;99.90
3100;DHT22;1560;52.746;13.474;2022-11-15T05:44:54;4.00;99.90
3100;DHT22;1560;52.746;13.474;2022-11-15T05:49:59;4.00;99.90
3100;DHT22;1560;52.746;13.474;2022-11-15T05:52:30;3.90;99.90
3100;DHT22;1560;52.746;13.474;2022-11-15T05:55:00;3.80;99.90
3100;DHT22;1560;52.746;13.474;2022-11-15T05:57:30;3.80;99.90
3100;DHT22;1560;52.746;13.474;2022-11-15T05:59:59;4.00;99.90
3100;DHT22;1560;52.746;13.474;2022-11-15T06:02:27;4.00;99.90
3100;DHT22;1560;52.746;13.474;2022-11-15T06:04:56;3.90;99.90
3100;DHT22;1560;52.746;13.474;2022-11-15T06:07:25;3.90;99.90
3100;DHT22;1560;52.746;13.474;2022-11-15T06:09:54;3.80;99.90
3100;DHT22;1560;52.746;13.474;2022-11-15T06:12:23;3.80;99.90
3100;DHT22;1560;52.746;13.474;2022-11-15T06:14:51;4.00;99.90
3100;DHT22;1560;52.746;13.474;2022-11-15T06:19:57;3.90;99.90
3100;DHT22;1560;52.746;13.474;2022-11-15T06:22:25;3.80;99.90
3100;DHT22;1560;52.746;13.474;2022-11-15T06:24:54;3.80;99.90
3100;DHT22;1560;52.746;13.474;2022-11-15T06:29:59;3.80;99.90
3100;DHT22;1560;52.746;13.474;2022-11-15T06:32:29;3.80;99.90
3100;DHT22;1560;52.746;13.474;2022-11-15T06:34:58;3.80;99.90
3100;DHT22;1560;52.746;13.474;2022-11-15T06:40:05;3.80;99.90
3100;DHT22;1560;52.746;13.474;2022-11-15T06:42:34;3.80;99.90
3100;DHT22;1560;52.746;13.474;2022-11-15T06:45:04;3.70;99.90
3100;DHT22;1560;52.746;13.474;2022-11-15T06:50:10;3.80;99.90
3100;DHT22;1560;52.746;13.474;2022-11-15T06:52:39;3.80;99.90
3100;DHT22;1560;52.746;13.474;2022-11-15T06:57:49;3.70;99.90
3100;DHT22;1560;52.746;13.474;2022-11-15T07:00:20;3.60;99.90
3100;DHT22;1560;52.746;13.474;2022-11-15T07:05:26;3.80;99.90
3100;DHT22;1560;52.746;13.474;2022-11-15T07:07:56;3.90;99.90
3100;DHT22;1560;52.746;13.474;2022-11-15T07:13:03;3.70;99.90
3100;DHT22;1560;52.746;13.474;2022-11-15T07:15:32;3.90;99.90
3100;DHT22;1560;52.746;13.474;2022-11-15T07:18:01;3.70;99.90
3100;DHT22;1560;52.746;13.474;2022-11-15T07:20:31;3.70;99.90
3100;DHT22;1560;52.746;13.474;2022-11-15T07:23:01;3.80;99.90
3100;DHT22;1560;52.746;13.474;2022-11-15T07:25:30;3.80;99.90
3100;DHT22;1560;52.746;13.474;2022-11-15T07:27:59;3.80;99.90
3100;DHT22;1560;52.746;13.474;2022-11-15T07:30:29;3.90;99.90
3100;DHT22;1560;52.746;13.474;2022-11-15T07:32:59;3.80;99.90
3100;DHT22;1560;52.746;13.474;2022-11-15T07:35:29;3.90;99.90
3100;DHT22;1560;52.746;13.474;2022-11-15T07:37:59;3.90;99.90
3100;DHT22;1560;52.746;13.474;2022-11-15T07:40:30;4.00;99.90
3100;DHT22;1560;52.746;13.474;2022-11-15T07:43:04;4.00;99.90
3100;DHT22;1560;52.746;13.474;2022-11-15T07:45:34;3.90;99.90
3100;DHT22;1560;52.746;13.474;2022-11-15T07:48:05;4.00;99.90
3100;DHT22;1560;52.746;13.474;2022-11-15T07:50:34;4.00;99.90
3100;DHT22;1560;52.746;13.474;2022-11-15T07:53:02;4.10;99.90
3100;DHT22;1560;52.746;13.474;2022-11-15T07:55:31;3.90;99.90
3100;DHT22;1560;52.746;13.474;2022-11-15T07:58:04;4.00;99.90
3100;DHT22;1560;52.746;13.474;2022-11-15T08:03:11;4.10;99.90
3100;DHT22;1560;52.746;13.474;2022-11-15T08:05:41;4.10;99.90
3100;DHT22;1560;52.746;13.474;2022-11-15T08:08:11;4.10;99.90
3100;DHT22;1560;52.746;13.474;2022-11-15T08:10:40;4.20;99.90
3100;DHT22;1560;52.746;13.474;2022-11-15T08:13:10;4.20;99.90
3100;DHT22;1560;52.746;13.474;2022-11-15T08:15:40;4.30;99.90
3100;DHT22;1560;52.746;13.474;2022-11-15T08:18:11;4.30;99.90
3100;DHT22;1560;52.746;13.474;2022-11-15T08:20:40;4.30;99.90
3100;DHT22;1560;52.746;13.474;2022-11-15T08:23:11;4.40;99.90
3100;DHT22;1560;52.746;13.474;2022-11-15T08:28:17;4.60;99.90
3100;DHT22;1560;52.746;13.474;2022-11-15T08:30:46;4.60;99.90
3100;DHT22;1560;52.746;13.474;2022-11-15T08:33:15;4.70;99.90
3100;DHT22;1560;52.746;13.474;2022-11-15T08:35:44;4.80;99.90
3100;DHT22;1560;52.746;13.474;2022-11-15T08:38:13;4.80;99.90
3100;DHT22;1560;52.746;13.474;2022-11-15T08:43:23;5.10;99.90
3100;DHT22;1560;52.746;13.474;2022-11-15T08:45:52;5.20;99.90
3100;DHT22;1560;52.746;13.474;2022-11-15T08:48:22;5.30;99.90
3100;DHT22;1560;52.746;13.474;2022-11-15T08:50:54;5.40;99.90
3100;DHT22;1560;52.746;13.474;2022-11-15T08:53:24;5.60;99.90
3100;DHT22;1560;52.746;13.474;2022-11-15T08:55:52;5.80;99.90
3100;DHT22;1560;52.746;13.474;2022-11-15T08:58:21;5.80;99.90
3100;DHT22;1560;52.746;13.474;2022-11-15T09:00:50;5.80;99.90
3100;DHT22;1560;52.746;13.474;2022-11-15T09:03:19;6.00;99.90
3100;DHT22;1560;52.746;13.474;2022-11-15T09:05:47;6.00;99.90
3100;DHT22;1560;52.746;13.474;2022-11-15T09:10:53;6.00;99.90
3100;DHT22;1560;52.746;13.474;2022-11-15T09:13:21;6.00;99.90
3100;DHT22;1560;52.746;13.474;2022-11-15T09:15:50;6.00;99.90
3100;DHT22;1560;52.746;13.474;2022-11-15T09:18:19;6.00;99.90
3100;DHT22;1560;52.746;13.474;2022-11-15T09:20:50;6.10;99.90
3100;DHT22;1560;52.746;13.474;2022-11-15T09:23:19;6.20;99.90
3100;DHT22;1560;52.746;13.474;2022-11-15T09:25:47;6.20;99.90
3100;DHT22;1560;52.746;13.474;2022-11-15T09:28:16;6.20;99.90
3100;DHT22;1560;52.746;13.474;2022-11-15T09:33:21;6.30;99.90
3100;DHT22;1560;52.746;13.474;2022-11-15T09:35:50;6.40;99.90
3100;DHT22;1560;52.746;13.474;2022-11-15T09:38:20;6.40;99.90
3100;DHT22;1560;52.746;13.474;2022-11-15T09:40:52;6.60;99.90
3100;DHT22;1560;52.746;13.474;2022-11-15T09:43:32;6.80;99.90
3100;DHT22;1560;52.746;13.474;2022-11-15T09:46:08;6.90;99.90
3100;DHT22;1560;52.746;13.474;2022-11-15T09:51:21;7.10;99.90
3100;DHT22;1560;52.746;13.474;2022-11-15T09:56:31;7.10;99.90
3100;DHT22;1560;52.746;13.474;2022-11-15T10:01:53;7.20;99.90
3100;DHT22;1560;52.746;13.474;2022-11-15T10:07:01;7.30;99.90
3100;DHT22;1560;52.746;13.474;2022-11-15T10:09:35;7.40;99.90
3100;DHT22;1560;52.746;13.474;2022-11-15T10:14:42;7.30;99.90
3100;DHT22;1560;52.746;13.474;2022-11-15T10:17:21;7.40;99.90
3100;DHT22;1560;52.746;13.474;2022-11-15T10:20:02;7.40;99.90
3100;DHT22;1560;52.746;13.474;2022-11-15T10:25:17;7.40;99.90
3100;DHT22;1560;52.746;13.474;2022-11-15T10:27:51;7.50;99.90
3100;DHT22;1560;52.746;13.474;2022-11-15T10:32:58;7.80;99.90
3100;DHT22;1560;52.746;13.474;2022-11-15T10:35:30;7.80;99.90
3100;DHT22;1560;52.746;13.474;2022-11-15T10:38:07;7.90;99.90
3100;DHT22;1560;52.746;13.474;2022-11-15T10:40:38;8.00;99.90
3100;DHT22;1560;52.746;13.474;2022-11-15T10:43:13;8.00;99.90
3100;DHT22;1560;52.746;13.474;2022-11-15T10:48:24;8.00;99.90
3100;DHT22;1560;52.746;13.474;2022-11-15T10:50:55;8.00;99.90
3100;DHT22;1560;52.746;13.474;2022-11-15T10:53:31;8.00;99.90
3100;DHT22;1560;52.746;13.474;2022-11-15T10:56:02;8.10;99.90
3100;DHT22;1560;52.746;13.474;2022-11-15T10:58:36;8.10;99.90
3100;DHT22;1560;52.746;13.474;2022-11-15T11:01:17;8.10;99.90
3100;DHT22;1560;52.746;13.474;2022-11-15T11:03:58;8.20;99.90
3100;DHT22;1560;52.746;13.474;2022-11-15T11:06:27;8.10;99.90
3100;DHT22;1560;52.746;13.474;2022-11-15T11:08:57;8.30;99.90
3100;DHT22;1560;52.746;13.474;2022-11-15T11:11:43;8.40;99.90
3100;DHT22;1560;52.746;13.474;2022-11-15T11:14:12;8.50;99.90
3100;DHT22;1560;52.746;13.474;2022-11-15T11:40:32;9.00;99.90
3100;DHT22;1560;52.746;13.474;2022-11-15T11:43:05;9.20;99.90
3100;DHT22;1560;52.746;13.474;2022-11-15T11:48:27;9.20;99.90
3100;DHT22;1560;52.746;13.474;2022-11-15T11:51:01;9.10;99.90
3100;DHT22;1560;52.746;13.474;2022-11-15T11:56:12;9.10;99.90
3100;DHT22;1560;52.746;13.474;2022-11-15T11:58:44;9.20;99.90
3100;DHT22;1560;52.746;13.474;2022-11-15T12:03:57;9.10;99.90
3100;DHT22;1560;52.746;13.474;2022-11-15T12:06:30;9.10;99.90
3100;DHT22;1560;52.746;13.474;2022-11-15T12:09:04;9.20;99.90
3100;DHT22;1560;52.746;13.474;2022-11-15T12:11:41;9.30;99.90
3100;DHT22;1560;52.746;13.474;2022-11-15T12:16:49;9.30;99.90
3100;DHT22;1560;52.746;13.474;2022-11-15T12:19:18;9.70;99.90
3100;DHT22;1560;52.746;13.474;2022-11-15T12:21:49;9.60;99.90
3100;DHT22;1560;52.746;13.474;2022-11-15T12:24:21;9.60;99.90
3100;DHT22;1560;52.746;13.474;2022-11-15T12:26:54;9.70;99.90
3100;DHT22;1560;52.746;13.474;2022-11-15T12:29:27;9.60;99.90
3100;DHT22;1560;52.746;13.474;2022-11-15T12:31:58;9.70;99.90
3100;DHT22;1560;52.746;13.474;2022-11-15T12:34:38;9.70;99.90
3100;DHT22;1560;52.746;13.474;2022-11-15T12:43:38;9.60;99.90
3100;DHT22;1560;52.746;13.474;2022-11-15T12:48:51;9.60;99.90
3100;DHT22;1560;52.746;13.474;2022-11-15T12:51:23;9.70;99.90
3100;DHT22;1560;52.746;13.474;2022-11-15T12:53:53;9.70;99.90
3100;DHT22;1560;52.746;13.474;2022-11-15T12:56:23;9.70;99.90
3100;DHT22;1560;52.746;13.474;2022-11-15T13:01:59;9.70;99.90
3100;DHT22;1560;52.746;13.474;2022-11-15T13:04:33;9.70;99.90
3100;DHT22;1560;52.746;13.474;2022-11-15T13:07:04;9.70;99.90
3100;DHT22;1560;52.746;13.474;2022-11-15T13:09:54;9.80;99.90
3100;DHT22;1560;52.746;13.474;2022-11-15T13:12:57;9.80;99.90
3100;DHT22;1560;52.746;13.474;2022-11-15T13:15:38;9.80;99.90
3100;DHT22;1560;52.746;13.474;2022-11-15T13:21:23;10.00;99.90
3100;DHT22;1560;52.746;13.474;2022-11-15T13:26:48;9.80;99.90
3100;DHT22;1560;52.746;13.474;2022-11-15T13:29:18;9.80;99.90
3100;DHT22;1560;52.746;13.474;2022-11-15T13:31:49;9.70;99.90
3100;DHT22;1560;52.746;13.474;2022-11-15T13:34:26;9.70;99.90
3100;DHT22;1560;52.746;13.474;2022-11-15T13:36:56;9.70;99.90
3100;DHT22;1560;52.746;13.474;2022-11-15T13:42:03;9.70;99.90
3100;DHT22;1560;52.746;13.474;2022-11-15T13:47:13;9.60;99.90
3100;DHT22;1560;52.746;13.474;2022-11-15T13:49:43;9.50;99.90
3100;DHT22;1560;52.746;13.474;2022-11-15T13:52:13;9.50;99.90
3100;DHT22;1560;52.746;13.474;2022-11-15T13:54:46;9.50;99.90
3100;DHT22;1560;52.746;13.474;2022-11-15T13:59:57;9.50;99.90
3100;DHT22;1560;52.746;13.474;2022-11-15T14:07:54;9.40;99.90
3100;DHT22;1560;52.746;13.474;2022-11-15T14:10:29;9.40;99.90
3100;DHT22;1560;52.746;13.474;2022-11-15T14:12:58;9.30;99.90
3100;DHT22;1560;52.746;13.474;2022-11-15T14:15:32;9.30;99.90
3100;DHT22;1560;52.746;13.474;2022-11-15T14:18:00;9.30;99.90
3100;DHT22;1560;52.746;13.474;2022-11-15T14:23:19;9.20;99.90
3100;DHT22;1560;52.746;13.474;2022-11-15T14:25:54;9.20;99.90
3100;DHT22;1560;52.746;13.474;2022-11-15T14:31:12;9.10;99.90
3100;DHT22;1560;52.746;13.474;2022-11-15T14:33:41;9.10;99.90
3100;DHT22;1560;52.746;13.474;2022-11-15T14:36:13;9.10;99.90
